Sedgefield, North Carolina
Current Conditions -  °F | °C
As of 5:54 PM on Tuesday 21 Oct 2014 (Local Time) from KGSO Reporting Station
Scattered Clouds Scattered Clouds  
Wind Chill: 66°   Ceiling: Unl
Heat Index: 66°   Visibility: 10mi
Dew Point: 43°   Wind: 15mph
Humidity: 43%   Direction: 320°NW
Pressure: 29.88"   Gusts: NA
Location:  36.011°N, 79.8751°W
Report Text: KGSO 212154Z 32013KT 10SM SCT060 19/06 A2988 RMK AO2 SLP112 T01890061
Loading
Personal Weather Stations






























Interactive Weather Map
Tropical Storm Tracking
New forecast layout! Learn more

10-Day Weather Forecast

Advertisements
Track Severe Weather on mobile